sensor_id;sensor_type;location;lat;lon;timestamp;temperature;humidity
12438;DHT22;6283;51.330;12.374;2023-06-14T00:03:29;15.60;1.00
12438;DHT22;6283;51.330;12.374;2023-06-14T00:05:57;15.40;1.00
12438;DHT22;6283;51.330;12.374;2023-06-14T00:08:22;15.30;1.00
12438;DHT22;6283;51.330;12.374;2023-06-14T00:10:50;15.20;1.00
12438;DHT22;6283;51.330;12.374;2023-06-14T00:13:15;15.20;1.00
12438;DHT22;6283;51.330;12.374;2023-06-14T00:15:41;15.20;1.00
12438;DHT22;6283;51.330;12.374;2023-06-14T00:18:08;15.20;1.00
12438;DHT22;6283;51.330;12.374;2023-06-14T00:20:37;15.20;1.00
12438;DHT22;6283;51.330;12.374;2023-06-14T00:23:02;15.20;1.00
12438;DHT22;6283;51.330;12.374;2023-06-14T00:25:28;15.10;1.00
12438;DHT22;6283;51.330;12.374;2023-06-14T00:27:54;15.10;1.00
12438;DHT22;6283;51.330;12.374;2023-06-14T00:30:21;15.10;1.00
12438;DHT22;6283;51.330;12.374;2023-06-14T00:32:47;15.10;1.00
12438;DHT22;6283;51.330;12.374;2023-06-14T00:35:13;15.10;1.00
12438;DHT22;6283;51.330;12.374;2023-06-14T00:37:39;15.00;1.00
12438;DHT22;6283;51.330;12.374;2023-06-14T00:40:06;15.00;1.00
12438;DHT22;6283;51.330;12.374;2023-06-14T00:42:32;15.00;1.00
12438;DHT22;6283;51.330;12.374;2023-06-14T00:44:57;15.00;1.00
12438;DHT22;6283;51.330;12.374;2023-06-14T00:47:23;14.90;1.00
12438;DHT22;6283;51.330;12.374;2023-06-14T00:49:50;14.90;1.00
12438;DHT22;6283;51.330;12.374;2023-06-14T00:52:17;14.90;1.00
12438;DHT22;6283;51.330;12.374;2023-06-14T00:54:43;14.90;1.00
12438;DHT22;6283;51.330;12.374;2023-06-14T00:57:10;14.80;1.00
12438;DHT22;6283;51.330;12.374;2023-06-14T00:59:47;14.80;1.00
12438;DHT22;6283;51.330;12.374;2023-06-14T01:02:13;14.80;1.00
12438;DHT22;6283;51.330;12.374;2023-06-14T01:04:43;14.80;1.00
12438;DHT22;6283;51.330;12.374;2023-06-14T01:07:43;14.80;1.00
12438;DHT22;6283;51.330;12.374;2023-06-14T01:13:12;14.70;1.00
12438;DHT22;6283;51.330;12.374;2023-06-14T01:15:41;14.70;1.00
12438;DHT22;6283;51.330;12.374;2023-06-14T01:18:08;14.60;1.00
12438;DHT22;6283;51.330;12.374;2023-06-14T01:20:42;14.60;1.00
12438;DHT22;6283;51.330;12.374;2023-06-14T01:23:10;14.60;1.00
12438;DHT22;6283;51.330;12.374;2023-06-14T01:25:37;14.60;1.00
12438;DHT22;6283;51.330;12.374;2023-06-14T01:28:06;14.50;1.00
12438;DHT22;6283;51.330;12.374;2023-06-14T01:30:38;14.50;1.00
12438;DHT22;6283;51.330;12.374;2023-06-14T01:33:04;14.50;1.00
12438;DHT22;6283;51.330;12.374;2023-06-14T01:35:31;14.50;1.00
12438;DHT22;6283;51.330;12.374;2023-06-14T01:37:57;14.50;1.00
12438;DHT22;6283;51.330;12.374;2023-06-14T01:40:23;14.50;1.00
12438;DHT22;6283;51.330;12.374;2023-06-14T01:42:50;14.40;1.00
12438;DHT22;6283;51.330;12.374;2023-06-14T01:45:18;14.40;1.00
12438;DHT22;6283;51.330;12.374;2023-06-14T01:47:45;14.40;1.00
12438;DHT22;6283;51.330;12.374;2023-06-14T01:50:11;14.40;1.00
12438;DHT22;6283;51.330;12.374;2023-06-14T01:52:37;14.40;1.00
12438;DHT22;6283;51.330;12.374;2023-06-14T01:55:05;14.40;1.00
12438;DHT22;6283;51.330;12.374;2023-06-14T01:57:31;14.30;1.00
12438;DHT22;6283;51.330;12.374;2023-06-14T01:59:56;14.30;1.00
12438;DHT22;6283;51.330;12.374;2023-06-14T02:02:22;14.30;1.00
12438;DHT22;6283;51.330;12.374;2023-06-14T02:04:48;14.20;1.00
12438;DHT22;6283;51.330;12.374;2023-06-14T02:07:13;14.20;1.00
12438;DHT22;6283;51.330;12.374;2023-06-14T02:09:40;14.20;1.00
12438;DHT22;6283;51.330;12.374;2023-06-14T02:12:07;14.10;1.00
12438;DHT22;6283;51.330;12.374;2023-06-14T02:14:32;14.10;1.00
12438;DHT22;6283;51.330;12.374;2023-06-14T02:16:59;14.00;1.00
12438;DHT22;6283;51.330;12.374;2023-06-14T02:19:26;14.00;1.00
12438;DHT22;6283;51.330;12.374;2023-06-14T02:21:52;14.00;1.00
12438;DHT22;6283;51.330;12.374;2023-06-14T02:24:17;13.90;1.00
12438;DHT22;6283;51.330;12.374;2023-06-14T02:26:43;13.90;1.00
12438;DHT22;6283;51.330;12.374;2023-06-14T02:29:09;13.90;1.00
12438;DHT22;6283;51.330;12.374;2023-06-14T02:31:36;13.80;1.00
12438;DHT22;6283;51.330;12.374;2023-06-14T02:34:02;13.80;1.00
12438;DHT22;6283;51.330;12.374;2023-06-14T02:36:28;13.80;1.00
12438;DHT22;6283;51.330;12.374;2023-06-14T02:38:56;13.80;1.00
12438;DHT22;6283;51.330;12.374;2023-06-14T02:41:23;13.80;1.00
12438;DHT22;6283;51.330;12.374;2023-06-14T02:43:49;13.80;1.00
12438;DHT22;6283;51.330;12.374;2023-06-14T02:46:15;13.80;1.00
12438;DHT22;6283;51.330;12.374;2023-06-14T02:48:41;13.80;1.00
12438;DHT22;6283;51.330;12.374;2023-06-14T02:51:06;13.80;1.00
12438;DHT22;6283;51.330;12.374;2023-06-14T02:53:34;13.70;1.00
12438;DHT22;6283;51.330;12.374;2023-06-14T02:56:00;13.70;1.00
12438;DHT22;6283;51.330;12.374;2023-06-14T02:58:26;13.70;1.00
12438;DHT22;6283;51.330;12.374;2023-06-14T03:00:52;13.60;1.00
12438;DHT22;6283;51.330;12.374;2023-06-14T03:03:20;13.60;1.00
12438;DHT22;6283;51.330;12.374;2023-06-14T03:05:47;13.60;1.00
12438;DHT22;6283;51.330;12.374;2023-06-14T03:08:15;13.50;1.00
12438;DHT22;6283;51.330;12.374;2023-06-14T03:10:47;13.50;1.00
12438;DHT22;6283;51.330;12.374;2023-06-14T03:13:14;13.50;1.00
12438;DHT22;6283;51.330;12.374;2023-06-14T03:15:41;13.50;1.00
12438;DHT22;6283;51.330;12.374;2023-06-14T03:18:08;13.40;1.00
12438;DHT22;6283;51.330;12.374;2023-06-14T03:20:35;13.40;1.00
12438;DHT22;6283;51.330;12.374;2023-06-14T03:23:01;13.40;1.00
12438;DHT22;6283;51.330;12.374;2023-06-14T03:25:28;13.40;1.00
12438;DHT22;6283;51.330;12.374;2023-06-14T03:27:55;13.30;1.00
12438;DHT22;6283;51.330;12.374;2023-06-14T03:30:21;13.30;1.00
12438;DHT22;6283;51.330;12.374;2023-06-14T03:32:46;13.30;1.00
12438;DHT22;6283;51.330;12.374;2023-06-14T03:35:12;13.30;1.00
12438;DHT22;6283;51.330;12.374;2023-06-14T03:37:43;13.30;1.00
12438;DHT22;6283;51.330;12.374;2023-06-14T03:40:09;13.20;1.00
12438;DHT22;6283;51.330;12.374;2023-06-14T03:42:35;13.20;1.00
12438;DHT22;6283;51.330;12.374;2023-06-14T03:45:01;13.20;1.00
12438;DHT22;6283;51.330;12.374;2023-06-14T03:47:26;13.30;1.00
12438;DHT22;6283;51.330;12.374;2023-06-14T03:49:52;13.30;1.00
12438;DHT22;6283;51.330;12.374;2023-06-14T03:52:18;13.30;1.00
12438;DHT22;6283;51.330;12.374;2023-06-14T03:54:44;13.30;1.00
12438;DHT22;6283;51.330;12.374;2023-06-14T03:57:10;13.20;1.00
12438;DHT22;6283;51.330;12.374;2023-06-14T03:59:36;13.20;1.00
12438;DHT22;6283;51.330;12.374;2023-06-14T04:02:02;13.20;1.00
12438;DHT22;6283;51.330;12.374;2023-06-14T04:04:28;13.20;1.00
12438;DHT22;6283;51.330;12.374;2023-06-14T04:06:55;13.20;1.00
12438;DHT22;6283;51.330;12.374;2023-06-14T04:09:23;13.20;1.00
12438;DHT22;6283;51.330;12.374;2023-06-14T04:11:51;13.20;1.00
12438;DHT22;6283;51.330;12.374;2023-06-14T04:14:18;13.20;1.00
12438;DHT22;6283;51.330;12.374;2023-06-14T04:16:43;13.20;1.00
12438;DHT22;6283;51.330;12.374;2023-06-14T04:19:09;13.20;1.00
12438;DHT22;6283;51.330;12.374;2023-06-14T04:21:35;13.20;1.00
12438;DHT22;6283;51.330;12.374;2023-06-14T04:24:01;13.30;1.00
12438;DHT22;6283;51.330;12.374;2023-06-14T04:26:27;13.30;1.00
12438;DHT22;6283;51.330;12.374;2023-06-14T04:28:55;13.30;1.00
12438;DHT22;6283;51.330;12.374;2023-06-14T04:31:22;13.40;1.00
12438;DHT22;6283;51.330;12.374;2023-06-14T04:33:50;13.40;1.00
12438;DHT22;6283;51.330;12.374;2023-06-14T04:36:18;13.50;1.00
12438;DHT22;6283;51.330;12.374;2023-06-14T04:38:44;13.50;1.00
12438;DHT22;6283;51.330;12.374;2023-06-14T04:41:12;13.50;1.00
12438;DHT22;6283;51.330;12.374;2023-06-14T04:43:38;13.50;1.00
12438;DHT22;6283;51.330;12.374;2023-06-14T04:46:05;13.60;1.00
12438;DHT22;6283;51.330;12.374;2023-06-14T04:48:40;13.60;1.00
12438;DHT22;6283;51.330;12.374;2023-06-14T04:51:07;13.70;1.00
12438;DHT22;6283;51.330;12.374;2023-06-14T04:53:32;13.70;1.00
12438;DHT22;6283;51.330;12.374;2023-06-14T04:55:58;13.80;1.00
12438;DHT22;6283;51.330;12.374;2023-06-14T04:58:26;13.80;1.00
12438;DHT22;6283;51.330;12.374;2023-06-14T05:00:52;13.90;1.00
12438;DHT22;6283;51.330;12.374;2023-06-14T05:03:19;13.90;1.00
12438;DHT22;6283;51.330;12.374;2023-06-14T05:05:46;14.00;1.00
12438;DHT22;6283;51.330;12.374;2023-06-14T05:08:12;14.10;1.00
12438;DHT22;6283;51.330;12.374;2023-06-14T05:10:38;14.20;1.00
12438;DHT22;6283;51.330;12.374;2023-06-14T05:13:04;14.40;1.00
12438;DHT22;6283;51.330;12.374;2023-06-14T05:15:29;14.50;1.00
12438;DHT22;6283;51.330;12.374;2023-06-14T05:17:55;14.70;1.00
12438;DHT22;6283;51.330;12.374;2023-06-14T05:20:24;14.80;1.00
12438;DHT22;6283;51.330;12.374;2023-06-14T05:22:54;15.00;1.00
12438;DHT22;6283;51.330;12.374;2023-06-14T05:25:20;15.10;1.00
12438;DHT22;6283;51.330;12.374;2023-06-14T05:27:46;15.30;1.00
12438;DHT22;6283;51.330;12.374;2023-06-14T05:30:13;15.30;1.00
12438;DHT22;6283;51.330;12.374;2023-06-14T05:32:39;15.40;1.00
12438;DHT22;6283;51.330;12.374;2023-06-14T05:35:08;15.50;1.00
12438;DHT22;6283;51.330;12.374;2023-06-14T05:37:34;15.60;1.00
12438;DHT22;6283;51.330;12.374;2023-06-14T05:39:59;15.60;1.00
12438;DHT22;6283;51.330;12.374;2023-06-14T05:42:25;15.70;1.00
12438;DHT22;6283;51.330;12.374;2023-06-14T05:44:51;15.80;1.00
12438;DHT22;6283;51.330;12.374;2023-06-14T05:47:16;15.80;1.00
12438;DHT22;6283;51.330;12.374;2023-06-14T05:49:42;15.90;1.00
12438;DHT22;6283;51.330;12.374;2023-06-14T05:52:08;15.90;1.00
12438;DHT22;6283;51.330;12.374;2023-06-14T05:54:33;15.90;1.00
12438;DHT22;6283;51.330;12.374;2023-06-14T05:56:59;16.00;1.00
12438;DHT22;6283;51.330;12.374;2023-06-14T05:59:29;16.00;1.00
12438;DHT22;6283;51.330;12.374;2023-06-14T06:01:55;16.10;1.00
12438;DHT22;6283;51.330;12.374;2023-06-14T06:04:20;16.10;1.00
12438;DHT22;6283;51.330;12.374;2023-06-14T06:06:46;16.30;1.00
12438;DHT22;6283;51.330;12.374;2023-06-14T06:09:13;16.30;1.00
12438;DHT22;6283;51.330;12.374;2023-06-14T06:11:40;16.40;1.00
12438;DHT22;6283;51.330;12.374;2023-06-14T06:14:06;16.40;1.00
12438;DHT22;6283;51.330;12.374;2023-06-14T06:16:31;16.40;1.00
12438;DHT22;6283;51.330;12.374;2023-06-14T06:18:57;16.40;1.00
12438;DHT22;6283;51.330;12.374;2023-06-14T06:21:23;16.50;1.00
12438;DHT22;6283;51.330;12.374;2023-06-14T06:23:48;16.50;1.00
12438;DHT22;6283;51.330;12.374;2023-06-14T06:26:14;16.50;1.00
12438;DHT22;6283;51.330;12.374;2023-06-14T06:28:40;16.60;1.00
12438;DHT22;6283;51.330;12.374;2023-06-14T06:31:06;16.60;1.00
12438;DHT22;6283;51.330;12.374;2023-06-14T06:33:32;16.70;1.00
12438;DHT22;6283;51.330;12.374;2023-06-14T06:35:57;16.80;1.00
12438;DHT22;6283;51.330;12.374;2023-06-14T06:38:23;16.80;1.00
12438;DHT22;6283;51.330;12.374;2023-06-14T06:40:48;16.90;1.00
12438;DHT22;6283;51.330;12.374;2023-06-14T06:43:14;16.90;1.00
12438;DHT22;6283;51.330;12.374;2023-06-14T06:45:42;17.00;1.00
12438;DHT22;6283;51.330;12.374;2023-06-14T06:48:08;17.10;1.00
12438;DHT22;6283;51.330;12.374;2023-06-14T06:50:36;17.20;1.00
12438;DHT22;6283;51.330;12.374;2023-06-14T06:53:01;17.30;1.00
12438;DHT22;6283;51.330;12.374;2023-06-14T06:55:27;17.40;1.00
12438;DHT22;6283;51.330;12.374;2023-06-14T06:57:53;17.50;1.00
12438;DHT22;6283;51.330;12.374;2023-06-14T07:00:20;17.60;1.00
12438;DHT22;6283;51.330;12.374;2023-06-14T07:02:45;17.70;1.00
12438;DHT22;6283;51.330;12.374;2023-06-14T07:05:11;17.80;1.00
12438;DHT22;6283;51.330;12.374;2023-06-14T07:07:37;17.90;1.00
12438;DHT22;6283;51.330;12.374;2023-06-14T07:10:04;18.00;1.00
12438;DHT22;6283;51.330;12.374;2023-06-14T07:12:31;18.10;1.00
12438;DHT22;6283;51.330;12.374;2023-06-14T07:14:59;18.10;1.00
12438;DHT22;6283;51.330;12.374;2023-06-14T07:17:24;18.20;1.00
12438;DHT22;6283;51.330;12.374;2023-06-14T07:19:50;18.30;1.00
12438;DHT22;6283;51.330;12.374;2023-06-14T07:22:16;18.40;1.00
12438;DHT22;6283;51.330;12.374;2023-06-14T07:24:43;18.50;1.00
12438;DHT22;6283;51.330;12.374;2023-06-14T07:27:08;18.70;1.00
12438;DHT22;6283;51.330;12.374;2023-06-14T07:29:34;18.80;1.00
12438;DHT22;6283;51.330;12.374;2023-06-14T07:32:00;18.90;1.00
12438;DHT22;6283;51.330;12.374;2023-06-14T07:34:25;19.00;1.00
12438;DHT22;6283;51.330;12.374;2023-06-14T07:36:52;19.00;1.00
12438;DHT22;6283;51.330;12.374;2023-06-14T07:39:19;19.10;1.00
12438;DHT22;6283;51.330;12.374;2023-06-14T07:41:45;19.20;1.00
12438;DHT22;6283;51.330;12.374;2023-06-14T07:44:10;19.20;1.00
12438;DHT22;6283;51.330;12.374;2023-06-14T07:46:37;19.30;1.00
12438;DHT22;6283;51.330;12.374;2023-06-14T07:49:03;19.30;99.90
12438;DHT22;6283;51.330;12.374;2023-06-14T07:51:29;19.40;99.90
12438;DHT22;6283;51.330;12.374;2023-06-14T07:53:55;19.50;99.90
12438;DHT22;6283;51.330;12.374;2023-06-14T07:56:21;19.50;1.00
12438;DHT22;6283;51.330;12.374;2023-06-14T07:58:47;19.60;1.40
12438;DHT22;6283;51.330;12.374;2023-06-14T08:01:13;19.70;1.00
12438;DHT22;6283;51.330;12.374;2023-06-14T08:03:39;19.80;1.00
12438;DHT22;6283;51.330;12.374;2023-06-14T08:06:05;19.90;99.90
12438;DHT22;6283;51.330;12.374;2023-06-14T08:08:31;19.90;99.90
12438;DHT22;6283;51.330;12.374;2023-06-14T08:10:57;19.90;99.90
12438;DHT22;6283;51.330;12.374;2023-06-14T08:13:22;19.90;99.90
12438;DHT22;6283;51.330;12.374;2023-06-14T08:15:48;20.00;99.90
12438;DHT22;6283;51.330;12.374;2023-06-14T08:18:13;20.00;1.00
12438;DHT22;6283;51.330;12.374;2023-06-14T08:20:39;19.90;1.00
12438;DHT22;6283;51.330;12.374;2023-06-14T08:23:05;19.90;1.00
12438;DHT22;6283;51.330;12.374;2023-06-14T08:25:31;19.90;1.00
12438;DHT22;6283;51.330;12.374;2023-06-14T08:27:58;19.90;1.00
12438;DHT22;6283;51.330;12.374;2023-06-14T08:30:24;19.90;1.40
12438;DHT22;6283;51.330;12.374;2023-06-14T08:32:49;20.00;1.40
12438;DHT22;6283;51.330;12.374;2023-06-14T08:35:15;20.10;99.90
12438;DHT22;6283;51.330;12.374;2023-06-14T08:37:41;20.10;1.00
12438;DHT22;6283;51.330;12.374;2023-06-14T08:40:21;20.10;99.90
12438;DHT22;6283;51.330;12.374;2023-06-14T08:42:54;20.20;99.90
12438;DHT22;6283;51.330;12.374;2023-06-14T08:45:24;20.20;99.90
12438;DHT22;6283;51.330;12.374;2023-06-14T08:47:51;20.30;99.90
12438;DHT22;6283;51.330;12.374;2023-06-14T08:50:22;20.40;99.90
12438;DHT22;6283;51.330;12.374;2023-06-14T08:52:53;20.40;99.90
12438;DHT22;6283;51.330;12.374;2023-06-14T08:55:21;20.50;99.90
12438;DHT22;6283;51.330;12.374;2023-06-14T08:57:51;20.50;99.90
12438;DHT22;6283;51.330;12.374;2023-06-14T09:00:20;20.60;99.90
12438;DHT22;6283;51.330;12.374;2023-06-14T09:02:46;20.70;99.90
12438;DHT22;6283;51.330;12.374;2023-06-14T09:05:13;20.80;99.90
12438;DHT22;6283;51.330;12.374;2023-06-14T09:07:42;20.80;99.90
12438;DHT22;6283;51.330;12.374;2023-06-14T09:12:35;21.00;99.90
12438;DHT22;6283;51.330;12.374;2023-06-14T09:15:02;21.10;99.90
12438;DHT22;6283;51.330;12.374;2023-06-14T09:17:32;21.20;99.90
12438;DHT22;6283;51.330;12.374;2023-06-14T09:20:03;21.30;99.90
12438;DHT22;6283;51.330;12.374;2023-06-14T09:22:36;21.30;99.90
12438;DHT22;6283;51.330;12.374;2023-06-14T09:25:06;21.40;99.90
12438;DHT22;6283;51.330;12.374;2023-06-14T09:27:33;21.50;99.90
12438;DHT22;6283;51.330;12.374;2023-06-14T09:29:58;21.50;99.90
12438;DHT22;6283;51.330;12.374;2023-06-14T09:32:25;21.50;99.90
12438;DHT22;6283;51.330;12.374;2023-06-14T09:34:50;21.60;99.90
12438;DHT22;6283;51.330;12.374;2023-06-14T09:37:29;21.70;99.90
12438;DHT22;6283;51.330;12.374;2023-06-14T09:39:56;21.80;99.90
12438;DHT22;6283;51.330;12.374;2023-06-14T09:42:22;21.80;99.90
12438;DHT22;6283;51.330;12.374;2023-06-14T09:44:53;21.80;99.90
12438;DHT22;6283;51.330;12.374;2023-06-14T09:47:25;21.90;99.90
12438;DHT22;6283;51.330;12.374;2023-06-14T09:49:51;22.00;99.90
12438;DHT22;6283;51.330;12.374;2023-06-14T09:52:20;22.10;99.90
12438;DHT22;6283;51.330;12.374;2023-06-14T09:54:47;22.30;99.90
12438;DHT22;6283;51.330;12.374;2023-06-14T09:57:15;22.40;99.90
12438;DHT22;6283;51.330;12.374;2023-06-14T09:59:46;22.40;99.90
12438;DHT22;6283;51.330;12.374;2023-06-14T10:02:29;22.50;99.90
12438;DHT22;6283;51.330;12.374;2023-06-14T10:05:06;22.50;99.90
12438;DHT22;6283;51.330;12.374;2023-06-14T10:07:40;22.60;99.90
12438;DHT22;6283;51.330;12.374;2023-06-14T10:10:10;22.70;99.90
12438;DHT22;6283;51.330;12.374;2023-06-14T10:12:36;22.80;99.90
12438;DHT22;6283;51.330;12.374;2023-06-14T10:15:02;22.90;99.90
12438;DHT22;6283;51.330;12.374;2023-06-14T10:17:49;22.90;99.90
12438;DHT22;6283;51.330;12.374;2023-06-14T10:20:33;22.90;99.90
12438;DHT22;6283;51.330;12.374;2023-06-14T10:23:10;23.10;99.90
12438;DHT22;6283;51.330;12.374;2023-06-14T10:25:37;23.20;99.90
12438;DHT22;6283;51.330;12.374;2023-06-14T10:28:16;23.30;99.90
12438;DHT22;6283;51.330;12.374;2023-06-14T10:31:11;23.30;99.90
12438;DHT22;6283;51.330;12.374;2023-06-14T10:33:48;23.40;99.90
12438;DHT22;6283;51.330;12.374;2023-06-14T10:36:30;23.40;99.90
12438;DHT22;6283;51.330;12.374;2023-06-14T10:39:17;23.30;99.90
12438;DHT22;6283;51.330;12.374;2023-06-14T10:41:54;23.40;99.90
12438;DHT22;6283;51.330;12.374;2023-06-14T10:46:49;23.30;99.90
12438;DHT22;6283;51.330;12.374;2023-06-14T10:49:18;23.20;99.90
12438;DHT22;6283;51.330;12.374;2023-06-14T10:51:51;23.10;99.90
12438;DHT22;6283;51.330;12.374;2023-06-14T10:54:17;23.10;99.90
12438;DHT22;6283;51.330;12.374;2023-06-14T10:56:51;23.10;99.90
12438;DHT22;6283;51.330;12.374;2023-06-14T10:59:18;23.00;99.90
12438;DHT22;6283;51.330;12.374;2023-06-14T11:04:51;22.90;99.90
12438;DHT22;6283;51.330;12.374;2023-06-14T11:07:55;22.90;99.90
12438;DHT22;6283;51.330;12.374;2023-06-14T11:10:47;22.90;99.90
12438;DHT22;6283;51.330;12.374;2023-06-14T11:13:12;22.90;99.90
12438;DHT22;6283;51.330;12.374;2023-06-14T11:15:39;22.90;99.90
12438;DHT22;6283;51.330;12.374;2023-06-14T11:18:08;23.00;99.90
12438;DHT22;6283;51.330;12.374;2023-06-14T11:20:40;23.10;99.90
12438;DHT22;6283;51.330;12.374;2023-06-14T11:23:08;23.20;99.90
12438;DHT22;6283;51.330;12.374;2023-06-14T11:25:34;23.30;99.90
12438;DHT22;6283;51.330;12.374;2023-06-14T11:27:59;23.50;99.90
12438;DHT22;6283;51.330;12.374;2023-06-14T11:30:25;23.70;99.90
12438;DHT22;6283;51.330;12.374;2023-06-14T11:32:52;23.90;99.90
12438;DHT22;6283;51.330;12.374;2023-06-14T11:35:20;24.10;99.90
12438;DHT22;6283;51.330;12.374;2023-06-14T11:37:47;24.30;99.90
12438;DHT22;6283;51.330;12.374;2023-06-14T11:40:14;24.50;99.90
12438;DHT22;6283;51.330;12.374;2023-06-14T11:42:41;24.70;99.90
12438;DHT22;6283;51.330;12.374;2023-06-14T11:45:09;24.90;99.90
12438;DHT22;6283;51.330;12.374;2023-06-14T11:47:35;25.10;99.90
12438;DHT22;6283;51.330;12.374;2023-06-14T11:50:04;25.40;99.90
12438;DHT22;6283;51.330;12.374;2023-06-14T11:52:31;25.70;99.90
12438;DHT22;6283;51.330;12.374;2023-06-14T11:54:57;26.00;99.90
12438;DHT22;6283;51.330;12.374;2023-06-14T11:57:24;26.20;99.90
12438;DHT22;6283;51.330;12.374;2023-06-14T11:59:50;26.40;99.90
12438;DHT22;6283;51.330;12.374;2023-06-14T12:02:17;26.60;99.90
12438;DHT22;6283;51.330;12.374;2023-06-14T12:04:52;26.70;99.90
12438;DHT22;6283;51.330;12.374;2023-06-14T12:07:18;26.90;99.90
12438;DHT22;6283;51.330;12.374;2023-06-14T12:12:17;27.30;99.90
12438;DHT22;6283;51.330;12.374;2023-06-14T12:14:43;27.50;99.90
12438;DHT22;6283;51.330;12.374;2023-06-14T12:17:08;27.70;99.90
12438;DHT22;6283;51.330;12.374;2023-06-14T12:19:42;27.90;99.90
12438;DHT22;6283;51.330;12.374;2023-06-14T12:22:14;28.10;99.90
12438;DHT22;6283;51.330;12.374;2023-06-14T12:24:44;28.30;99.90
12438;DHT22;6283;51.330;12.374;2023-06-14T12:27:10;28.20;99.90
12438;DHT22;6283;51.330;12.374;2023-06-14T12:29:41;28.40;99.90
12438;DHT22;6283;51.330;12.374;2023-06-14T12:32:11;28.70;99.90
12438;DHT22;6283;51.330;12.374;2023-06-14T12:34:37;29.00;99.90
12438;DHT22;6283;51.330;12.374;2023-06-14T12:37:03;29.30;99.90
12438;DHT22;6283;51.330;12.374;2023-06-14T12:39:30;29.40;99.90
12438;DHT22;6283;51.330;12.374;2023-06-14T12:41:57;29.10;99.90
12438;DHT22;6283;51.330;12.374;2023-06-14T12:44:23;28.70;99.90
12438;DHT22;6283;51.330;12.374;2023-06-14T12:46:48;28.10;99.90
12438;DHT22;6283;51.330;12.374;2023-06-14T12:49:17;27.60;99.90
12438;DHT22;6283;51.330;12.374;2023-06-14T12:51:43;27.20;99.90
12438;DHT22;6283;51.330;12.374;2023-06-14T12:54:09;26.80;99.90
12438;DHT22;6283;51.330;12.374;2023-06-14T12:56:35;26.50;99.90
12438;DHT22;6283;51.330;12.374;2023-06-14T12:59:00;26.20;99.90
12438;DHT22;6283;51.330;12.374;2023-06-14T13:01:26;25.90;99.90
12438;DHT22;6283;51.330;12.374;2023-06-14T13:03:51;25.60;99.90
12438;DHT22;6283;51.330;12.374;2023-06-14T13:06:21;25.40;99.90
12438;DHT22;6283;51.330;12.374;2023-06-14T13:08:48;25.20;99.90
12438;DHT22;6283;51.330;12.374;2023-06-14T13:11:14;25.10;99.90
12438;DHT22;6283;51.330;12.374;2023-06-14T13:13:40;25.00;99.90
12438;DHT22;6283;51.330;12.374;2023-06-14T13:16:05;25.00;99.90
12438;DHT22;6283;51.330;12.374;2023-06-14T13:18:31;24.90;99.90
12438;DHT22;6283;51.330;12.374;2023-06-14T13:20:57;24.80;99.90
12438;DHT22;6283;51.330;12.374;2023-06-14T13:23:23;24.70;99.90
12438;DHT22;6283;51.330;12.374;2023-06-14T13:25:49;24.60;91.40
12438;DHT22;6283;51.330;12.374;2023-06-14T13:28:19;24.60;80.00
12438;DHT22;6283;51.330;12.374;2023-06-14T13:30:46;24.50;38.90
12438;DHT22;6283;51.330;12.374;2023-06-14T13:33:12;24.50;25.10
12438;DHT22;6283;51.330;12.374;2023-06-14T13:35:38;24.50;21.50
12438;DHT22;6283;51.330;12.374;2023-06-14T13:38:03;24.50;1.00
12438;DHT22;6283;51.330;12.374;2023-06-14T13:40:29;24.40;13.90
12438;DHT22;6283;51.330;12.374;2023-06-14T13:42:55;24.40;7.20
12438;DHT22;6283;51.330;12.374;2023-06-14T13:45:20;24.40;24.40
12438;DHT22;6283;51.330;12.374;2023-06-14T13:47:46;24.50;39.50
12438;DHT22;6283;51.330;12.374;2023-06-14T13:50:14;24.50;12.50
12438;DHT22;6283;51.330;12.374;2023-06-14T13:52:39;24.60;20.00
12438;DHT22;6283;51.330;12.374;2023-06-14T13:55:05;24.70;41.90
12438;DHT22;6283;51.330;12.374;2023-06-14T13:57:31;24.80;1.00
12438;DHT22;6283;51.330;12.374;2023-06-14T13:59:57;24.90;1.00
12438;DHT22;6283;51.330;12.374;2023-06-14T14:02:27;24.90;1.00
12438;DHT22;6283;51.330;12.374;2023-06-14T14:04:54;24.90;1.00
12438;DHT22;6283;51.330;12.374;2023-06-14T14:07:20;24.90;1.00
12438;DHT22;6283;51.330;12.374;2023-06-14T14:09:47;24.80;1.00
12438;DHT22;6283;51.330;12.374;2023-06-14T14:12:13;24.80;1.00
12438;DHT22;6283;51.330;12.374;2023-06-14T14:14:40;24.80;99.90
12438;DHT22;6283;51.330;12.374;2023-06-14T14:17:06;24.80;1.00
12438;DHT22;6283;51.330;12.374;2023-06-14T14:19:32;24.80;30.70
12438;DHT22;6283;51.330;12.374;2023-06-14T14:21:58;24.80;1.00
12438;DHT22;6283;51.330;12.374;2023-06-14T14:24:23;24.80;1.00
12438;DHT22;6283;51.330;12.374;2023-06-14T14:26:49;24.70;1.00
12438;DHT22;6283;51.330;12.374;2023-06-14T14:29:16;24.80;1.00
12438;DHT22;6283;51.330;12.374;2023-06-14T14:31:42;25.00;1.00
12438;DHT22;6283;51.330;12.374;2023-06-14T14:34:08;25.40;1.00
12438;DHT22;6283;51.330;12.374;2023-06-14T14:36:33;26.10;1.00
12438;DHT22;6283;51.330;12.374;2023-06-14T14:39:03;26.80;1.00
12438;DHT22;6283;51.330;12.374;2023-06-14T14:41:29;27.50;14.80
12438;DHT22;6283;51.330;12.374;2023-06-14T14:43:55;27.90;99.90
12438;DHT22;6283;51.330;12.374;2023-06-14T14:46:20;27.90;99.90
12438;DHT22;6283;51.330;12.374;2023-06-14T14:48:46;27.70;99.90
12438;DHT22;6283;51.330;12.374;2023-06-14T14:51:12;27.40;99.90
12438;DHT22;6283;51.330;12.374;2023-06-14T14:53:37;27.10;99.90
12438;DHT22;6283;51.330;12.374;2023-06-14T14:56:03;26.70;1.00
12438;DHT22;6283;51.330;12.374;2023-06-14T14:58:29;26.40;1.00
12438;DHT22;6283;51.330;12.374;2023-06-14T15:00:54;26.20;1.00
12438;DHT22;6283;51.330;12.374;2023-06-14T15:03:20;26.10;9.70
12438;DHT22;6283;51.330;12.374;2023-06-14T15:05:46;26.10;42.20
12438;DHT22;6283;51.330;12.374;2023-06-14T15:08:12;26.10;1.00
12438;DHT22;6283;51.330;12.374;2023-06-14T15:10:38;26.10;16.10
12438;DHT22;6283;51.330;12.374;2023-06-14T15:13:09;26.20;85.50
12438;DHT22;6283;51.330;12.374;2023-06-14T15:15:36;26.50;1.00
12438;DHT22;6283;51.330;12.374;2023-06-14T15:18:02;27.00;1.00
12438;DHT22;6283;51.330;12.374;2023-06-14T15:20:28;27.60;1.00
12438;DHT22;6283;51.330;12.374;2023-06-14T15:22:54;28.20;1.00
12438;DHT22;6283;51.330;12.374;2023-06-14T15:25:27;28.70;1.00
12438;DHT22;6283;51.330;12.374;2023-06-14T15:27:53;29.10;1.00
12438;DHT22;6283;51.330;12.374;2023-06-14T15:30:19;29.60;1.00
12438;DHT22;6283;51.330;12.374;2023-06-14T15:32:45;30.20;1.00
12438;DHT22;6283;51.330;12.374;2023-06-14T15:35:10;30.50;1.00
12438;DHT22;6283;51.330;12.374;2023-06-14T15:37:37;30.70;99.90
12438;DHT22;6283;51.330;12.374;2023-06-14T15:40:04;30.90;1.00
12438;DHT22;6283;51.330;12.374;2023-06-14T15:42:30;31.10;1.00
12438;DHT22;6283;51.330;12.374;2023-06-14T15:44:55;30.90;1.00
12438;DHT22;6283;51.330;12.374;2023-06-14T15:47:21;30.40;1.00
12438;DHT22;6283;51.330;12.374;2023-06-14T15:49:47;30.00;40.00
12438;DHT22;6283;51.330;12.374;2023-06-14T15:52:12;29.70;1.00
12438;DHT22;6283;51.330;12.374;2023-06-14T15:54:38;29.40;1.00
12438;DHT22;6283;51.330;12.374;2023-06-14T15:57:03;29.10;99.90